Time;durP1;ratioP1;P1;durP2;ratioP2;P2;SDS_P1;SDS_P2;PMS_P1;PMS_P2;Temp;Humidity;BMP_temperature;BMP_pressure;BME280_temperature;BME280_humidity;BME280_pressure;Samples;Min_cycle;Max_cycle;Signal;HPM_P1;HPM_P2
2022/10/04 00:01:59;;;;;;;7.15;3.30;;;12.80;99.90;;;;;;4983209;28;20031;-71
2022/10/04 00:04:25;;;;;;;9.52;2.85;;;12.80;99.90;;;;;;4976701;28;20046;-70
2022/10/04 00:07:12;;;;;;;10.20;3.25;;;12.80;99.90;;;;;;4979154;28;20558;-70
2022/10/04 00:09:48;;;;;;;10.40;3.90;;;12.80;99.90;;;;;;4967761;28;20102;-68
2022/10/04 00:12:33;;;;;;;13.13;3.90;;;12.80;99.90;;;;;;4977565;28;20076;-70
2022/10/04 00:15:03;;;;;;;7.65;3.25;;;12.80;99.90;;;;;;4982455;28;20038;-70
2022/10/04 00:17:34;;;;;;;9.77;3.85;;;12.80;99.90;;;;;;4981645;28;20030;-70
2022/10/04 00:20:00;;;;;;;6.47;3.38;;;12.80;99.90;;;;;;4983264;28;20067;-70
2022/10/04 00:22:30;;;;;;;13.20;3.15;;;12.80;99.90;;;;;;4977216;28;20063;-72
2022/10/04 00:25:06;;;;;;;9.30;3.22;;;12.80;99.90;;;;;;4979606;28;20027;-70
2022/10/04 00:27:33;;;;;;;14.77;3.30;;;12.80;99.90;;;;;;4976058;28;20097;-70
2022/10/04 00:30:02;;;;;;;10.00;3.28;;;12.80;99.90;;;;;;4981850;28;20118;-69
2022/10/04 00:32:46;;;;;;;15.57;4.03;;;12.80;99.90;;;;;;4982682;28;20046;-70
2022/10/04 00:35:24;;;;;;;7.18;3.10;;;12.80;99.90;;;;;;4979998;28;20514;-70
2022/10/04 00:38:12;;;;;;;9.88;3.03;;;12.80;99.90;;;;;;4975452;28;20030;-71
2022/10/04 00:41:04;;;;;;;8.10;2.65;;;12.80;99.90;;;;;;4979550;28;20038;-68
2022/10/04 00:43:42;;;;;;;11.18;2.97;;;12.90;99.90;;;;;;4977461;28;20061;-71
2022/10/04 00:46:22;;;;;;;9.98;3.55;;;12.90;99.90;;;;;;4983855;28;20038;-70
2022/10/04 00:48:59;;;;;;;10.15;3.08;;;12.90;99.90;;;;;;4982535;28;20050;-70
2022/10/04 00:51:37;;;;;;;11.50;3.35;;;12.90;99.90;;;;;;4972584;28;20057;-70
2022/10/04 00:54:13;;;;;;;5.07;2.85;;;12.90;99.90;;;;;;4977665;28;20041;-70
2022/10/04 00:56:46;;;;;;;8.48;3.38;;;12.90;99.90;;;;;;4989834;28;20053;-71
2022/10/04 00:59:32;;;;;;;9.95;2.97;;;12.90;99.90;;;;;;4979079;28;20105;-69
2022/10/04 01:02:20;;;;;;;9.52;4.03;;;12.90;99.90;;;;;;4979007;28;20041;-70
2022/10/04 01:04:52;;;;;;;8.52;3.53;;;12.90;99.90;;;;;;4983812;28;20035;-71
2022/10/04 01:07:25;;;;;;;7.03;3.28;;;12.80;99.90;;;;;;4976731;28;20392;-70
2022/10/04 01:09:59;;;;;;;15.50;4.40;;;12.80;99.90;;;;;;4979150;28;20030;-70
2022/10/04 01:12:33;;;;;;;15.80;4.22;;;12.80;99.90;;;;;;4982791;28;20034;-70
2022/10/04 01:15:06;;;;;;;14.05;3.67;;;12.80;99.90;;;;;;4979646;28;20117;-71
2022/10/04 01:17:32;;;;;;;10.85;4.25;;;12.80;99.90;;;;;;4976839;28;20062;-71
2022/10/04 01:19:57;;;;;;;9.50;3.75;;;12.80;99.90;;;;;;4979733;28;20491;-68
2022/10/04 01:22:47;;;;;;;8.38;3.70;;;12.70;99.90;;;;;;4978838;28;20100;-70
2022/10/04 01:25:47;;;;;;;8.87;3.37;;;12.70;99.90;;;;;;4982908;28;20031;-71
2022/10/04 01:28:13;;;;;;;9.93;3.75;;;12.60;99.90;;;;;;4978307;28;20042;-71
2022/10/04 01:30:39;;;;;;;14.75;3.83;;;12.50;99.90;;;;;;4982393;28;20043;-70
2022/10/04 01:33:05;;;;;;;8.02;3.95;;;12.50;99.90;;;;;;4980498;28;20031;-70
2022/10/04 01:35:34;;;;;;;6.32;3.35;;;12.40;99.90;;;;;;4983046;28;20116;-70
2022/10/04 01:38:06;;;;;;;9.35;3.63;;;12.40;99.90;;;;;;4982777;28;20057;-71
2022/10/04 01:40:38;;;;;;;12.82;4.07;;;12.40;99.90;;;;;;4981162;28;20458;-69
2022/10/04 01:43:11;;;;;;;9.75;3.85;;;12.40;99.90;;;;;;4981953;28;20030;-70
2022/10/04 01:45:36;;;;;;;9.77;3.80;;;12.40;99.90;;;;;;4990511;28;20096;-70
2022/10/04 01:48:11;;;;;;;10.15;3.55;;;12.30;99.90;;;;;;4981242;28;20038;-71
2022/10/04 01:50:55;;;;;;;13.70;4.53;;;12.30;99.90;;;;;;4977086;28;20100;-71
2022/10/04 01:53:28;;;;;;;7.25;3.72;;;12.30;99.90;;;;;;4977467;28;20109;-71
2022/10/04 01:56:04;;;;;;;10.15;3.30;;;12.20;99.90;;;;;;4985628;28;20491;-70
2022/10/04 01:58:41;;;;;;;9.85;3.72;;;12.10;99.90;;;;;;4981183;28;20037;-71
2022/10/04 02:01:12;;;;;;;12.55;4.32;;;12.10;99.90;;;;;;4979599;28;20133;-70
2022/10/04 02:03:42;;;;;;;;;;;12.10;99.90;;;;;;4982771;28;20114;-71
2022/10/04 02:06:11;;;;;;;13.65;4.28;;;12.10;99.90;;;;;;4977708;28;20460;-71
2022/10/04 02:08:46;;;;;;;11.82;4.47;;;12.00;99.90;;;;;;4981894;28;20110;-70
2022/10/04 02:11:19;;;;;;;9.30;3.88;;;12.00;99.90;;;;;;4978267;28;20080;-70
2022/10/04 02:13:48;;;;;;;11.93;4.97;;;11.90;99.90;;;;;;4982147;28;20034;-71
2022/10/04 02:16:16;;;;;;;15.88;4.18;;;11.90;99.90;;;;;;4974068;28;20427;-70
2022/10/04 02:18:43;;;;;;;9.18;4.28;;;11.90;99.90;;;;;;4986444;28;20027;-70
2022/10/04 02:21:10;;;;;;;12.35;4.28;;;11.90;99.90;;;;;;4977242;28;20043;-70
2022/10/04 02:23:37;;;;;;;12.90;4.63;;;11.80;99.90;;;;;;4978774;28;20073;-70
2022/10/04 02:26:05;;;;;;;11.73;4.20;;;11.80;99.90;;;;;;4985049;28;20475;-70
2022/10/04 02:28:32;;;;;;;11.23;4.47;;;11.80;99.90;;;;;;4982852;28;20121;-69
2022/10/04 02:33:47;;;;;;;14.85;4.88;;;11.80;99.90;;;;;;4971510;28;20442;-69
2022/10/04 02:36:14;;;;;;;10.93;4.15;;;11.70;99.90;;;;;;4977803;28;20022;-70
2022/10/04 02:38:52;;;;;;;15.85;4.57;;;11.70;99.90;;;;;;4982790;28;20129;-70
2022/10/04 02:41:30;;;;;;;9.63;4.03;;;11.70;99.90;;;;;;4981222;28;20054;-70
2022/10/04 02:44:13;;;;;;;9.93;4.38;;;11.70;99.90;;;;;;4979779;28;20057;-70
2022/10/04 02:46:44;;;;;;;12.60;4.22;;;11.60;99.90;;;;;;4981835;28;20050;-69
2022/10/04 02:49:31;;;;;;;12.60;3.97;;;11.60;99.90;;;;;;4974269;28;20051;-70
2022/10/04 02:52:00;;;;;;;10.40;3.88;;;11.60;99.90;;;;;;4983948;28;20049;-71
2022/10/04 02:54:26;;;;;;;10.30;4.47;;;11.60;99.90;;;;;;4976179;28;20037;-70
2022/10/04 02:56:54;;;;;;;13.07;4.38;;;11.60;99.90;;;;;;4977942;28;20469;-70
2022/10/04 02:59:21;;;;;;;12.18;4.63;;;11.50;99.90;;;;;;4983241;28;20038;-69
2022/10/04 03:01:56;;;;;;;14.55;5.57;;;11.50;99.90;;;;;;4975903;28;20042;-70
2022/10/04 03:04:25;;;;;;;8.27;3.90;;;11.50;99.90;;;;;;4978005;28;20407;-69
2022/10/04 03:06:52;;;;;;;8.88;3.85;;;11.50;99.90;;;;;;4978560;28;20034;-69
2022/10/04 03:09:21;;;;;;;9.07;4.10;;;11.50;99.90;;;;;;4977514;28;20100;-69
2022/10/04 03:11:48;;;;;;;10.93;4.10;;;11.40;99.90;;;;;;4982669;28;20040;-69
2022/10/04 03:14:22;;;;;;;10.23;5.32;;;11.40;99.90;;;;;;4979833;28;20403;-70
2022/10/04 03:16:52;;;;;;;11.77;3.85;;;11.40;99.90;;;;;;4976897;28;20073;-71
2022/10/04 03:19:23;;;;;;;8.45;4.43;;;11.40;99.90;;;;;;4982800;28;20518;-70
2022/10/04 03:21:52;;;;;;;10.20;4.35;;;11.40;99.90;;;;;;4983737;28;20050;-71
2022/10/04 03:24:27;;;;;;;15.63;4.90;;;11.40;99.90;;;;;;4977688;28;20571;-70
2022/10/04 03:26:55;;;;;;;13.02;4.32;;;11.40;99.90;;;;;;4983127;28;20610;-69
2022/10/04 03:29:24;;;;;;;12.57;4.55;;;11.50;99.90;;;;;;4975814;28;20125;-70
2022/10/04 03:31:56;;;;;;;16.52;4.40;;;11.40;99.90;;;;;;4979758;28;20034;-72
2022/10/04 03:34:36;;;;;;;9.65;4.60;;;11.40;99.90;;;;;;4978882;28;20056;-70
2022/10/04 03:37:05;;;;;;;;;;;11.40;99.90;;;;;;4978506;28;20089;-70
2022/10/04 03:39:44;;;;;;;16.70;4.28;;;11.40;99.90;;;;;;4979233;28;20345;-70
2022/10/04 03:42:19;;;;;;;9.00;4.20;;;11.40;99.90;;;;;;4973992;28;20031;-70
2022/10/04 03:44:46;;;;;;;8.93;4.70;;;11.40;99.90;;;;;;4980532;28;20117;-71
2022/10/04 03:47:20;;;;;;;10.13;3.70;;;11.30;99.90;;;;;;4976042;28;20031;-70
2022/10/04 03:49:48;;;;;;;11.77;4.85;;;11.30;99.90;;;;;;4982508;28;20506;-69
2022/10/04 03:52:23;;;;;;;14.98;3.95;;;11.30;99.90;;;;;;4980743;28;20030;-71
2022/10/04 03:54:52;;;;;;;12.43;4.25;;;11.30;99.90;;;;;;4978183;28;20031;-73
2022/10/04 03:57:17;;;;;;;10.48;4.57;;;11.20;99.90;;;;;;4978530;28;20062;-71
2022/10/04 03:59:43;;;;;;;9.20;4.47;;;11.20;99.90;;;;;;4979333;28;20061;-71
2022/10/04 04:02:35;;;;;;;10.77;4.72;;;11.20;99.90;;;;;;4976246;28;20030;-70
2022/10/04 04:05:28;;;;;;;10.88;4.13;;;11.20;99.90;;;;;;4983065;28;20062;-69
2022/10/04 04:08:06;;;;;;;12.40;4.90;;;11.20;99.90;;;;;;4979384;28;20038;-73
2022/10/04 04:10:41;;;;;;;13.80;5.35;;;11.20;99.90;;;;;;4984837;28;20049;-70
2022/10/04 04:13:18;;;;;;;7.20;4.53;;;11.20;99.90;;;;;;4981160;28;20038;-70
2022/10/04 04:15:45;;;;;;;13.57;4.70;;;11.10;99.90;;;;;;4979285;28;20038;-70
2022/10/04 04:18:18;;;;;;;15.38;4.57;;;11.10;99.90;;;;;;4982528;28;20068;-70
2022/10/04 04:20:44;;;;;;;11.55;5.18;;;11.10;99.90;;;;;;4985072;28;20034;-68
2022/10/04 04:23:13;;;;;;;11.57;5.65;;;11.10;99.90;;;;;;4984129;28;20050;-69
2022/10/04 04:25:42;;;;;;;12.23;5.82;;;11.10;99.90;;;;;;4985784;28;20406;-70
2022/10/04 04:28:35;;;;;;;11.60;5.38;;;11.00;99.90;;;;;;4977487;28;20031;-70
2022/10/04 04:31:21;;;;;;;15.10;5.25;;;11.00;99.90;;;;;;4985683;28;20037;-71
2022/10/04 04:34:02;;;;;;;10.32;4.93;;;11.00;99.90;;;;;;4975755;28;20511;-70
2022/10/04 04:36:31;;;;;;;14.60;5.45;;;11.00;99.90;;;;;;4980102;28;20127;-69
2022/10/04 04:39:38;;;;;;;12.55;5.35;;;11.00;99.90;;;;;;4987143;28;20117;-69
2022/10/04 04:42:09;;;;;;;15.65;5.35;;;11.00;99.90;;;;;;4976665;28;20043;-70
2022/10/04 04:44:46;;;;;;;12.10;5.28;;;10.90;99.90;;;;;;4979389;28;20034;-70
2022/10/04 04:47:24;;;;;;;10.93;5.35;;;10.90;99.90;;;;;;4981903;28;20065;-70
2022/10/04 04:49:50;;;;;;;10.13;5.15;;;10.90;99.90;;;;;;4981887;28;20038;-71
2022/10/04 04:52:18;;;;;;;18.08;5.13;;;10.90;99.90;;;;;;4978311;28;20034;-69
2022/10/04 04:54:45;;;;;;;15.10;5.38;;;10.90;99.90;;;;;;4984485;28;20034;-69
2022/10/04 04:57:15;;;;;;;13.00;5.30;;;10.90;99.90;;;;;;4983030;28;20033;-70
2022/10/04 04:59:44;;;;;;;17.02;5.32;;;10.90;99.90;;;;;;4979577;28;20042;-69
2022/10/04 05:02:36;;;;;;;15.53;5.87;;;10.90;99.90;;;;;;4982286;28;20062;-68
2022/10/04 05:05:13;;;;;;;12.55;5.78;;;10.90;99.90;;;;;;4981889;28;20487;-70
2022/10/04 05:07:42;;;;;;;14.43;5.82;;;10.90;99.90;;;;;;4988943;28;20046;-70
2022/10/04 05:10:34;;;;;;;12.23;5.80;;;10.90;99.90;;;;;;4988348;28;20141;-70
2022/10/04 05:13:01;;;;;;;15.23;5.85;;;10.90;99.90;;;;;;4986048;28;20402;-70
2022/10/04 05:15:32;;;;;;;13.90;5.63;;;10.90;99.90;;;;;;4988849;28;20141;-70
2022/10/04 05:17:58;;;;;;;11.00;5.75;;;10.90;99.90;;;;;;4985950;28;20125;-70
2022/10/04 05:20:25;;;;;;;12.32;5.55;;;10.90;99.90;;;;;;4988674;28;20134;-70
2022/10/04 05:22:51;;;;;;;13.43;5.38;;;10.90;99.90;;;;;;4985113;28;20456;-70
2022/10/04 05:25:32;;;;;;;18.17;6.43;;;10.90;99.90;;;;;;4983020;28;20715;-69
2022/10/04 05:27:58;;;;;;;12.48;5.57;;;10.90;99.90;;;;;;4983025;28;20041;-70
2022/10/04 05:30:48;;;;;;;12.95;5.18;;;10.90;99.90;;;;;;4983503;28;20454;-69
2022/10/04 05:33:25;;;;;;;16.60;6.63;;;10.90;99.90;;;;;;4978960;28;20035;-70
2022/10/04 05:35:56;;;;;;;12.75;5.50;;;10.90;99.90;;;;;;4979325;28;20554;-68
2022/10/04 05:38:28;;;;;;;17.60;5.65;;;10.90;99.90;;;;;;4976315;28;20414;-70
2022/10/04 05:41:14;;;;;;;11.00;4.75;;;10.90;99.90;;;;;;4973375;28;20125;-69
2022/10/04 05:43:49;;;;;;;20.90;5.97;;;10.90;99.90;;;;;;4972000;28;20043;-69
2022/10/04 05:46:34;;;;;;;15.85;5.90;;;10.90;99.90;;;;;;4977845;28;20035;-68
2022/10/04 05:49:12;;;;;;;11.35;5.53;;;10.80;99.90;;;;;;4970306;28;20039;-70
2022/10/04 05:52:15;;;;;;;14.65;5.72;;;10.80;99.90;;;;;;4970453;28;20043;-69
2022/10/04 05:54:41;;;;;;;11.13;5.00;;;10.90;99.90;;;;;;4966255;28;20058;-69
2022/10/04 05:57:55;;;;;;;13.50;5.40;;;10.80;99.90;;;;;;4976322;28;20070;-69
2022/10/04 06:00:38;;;;;;;11.30;4.97;;;10.80;99.90;;;;;;4959695;28;20122;-68
2022/10/04 06:03:22;;;;;;;10.82;5.10;;;10.70;99.90;;;;;;4975706;28;20023;-69
2022/10/04 06:05:54;;;;;;;11.95;4.63;;;10.70;99.90;;;;;;4976454;28;20071;-70
2022/10/04 06:08:50;;;;;;;10.35;5.13;;;10.70;99.90;;;;;;4972389;28;20039;-69
2022/10/04 06:12:00;;;;;;;21.17;6.68;;;10.70;99.90;;;;;;4972914;28;20069;-70
2022/10/04 06:14:34;;;;;;;14.70;4.97;;;10.70;99.90;;;;;;4972651;28;20128;-70
2022/10/04 06:17:28;;;;;;;13.07;5.68;;;10.70;99.90;;;;;;4974880;28;20434;-70
2022/10/04 06:20:17;;;;;;;11.63;5.05;;;10.70;99.90;;;;;;4975253;28;20038;-70
2022/10/04 06:22:46;;;;;;;14.93;6.47;;;10.70;99.90;;;;;;4970892;28;20077;-69
2022/10/04 06:25:35;;;;;;;12.77;5.38;;;10.70;99.90;;;;;;4973300;28;20494;-69
2022/10/04 06:28:12;;;;;;;12.57;4.93;;;10.70;99.90;;;;;;4973497;28;20058;-69
2022/10/04 06:30:57;;;;;;;13.40;5.65;;;10.70;99.90;;;;;;4974515;28;20055;-70
2022/10/04 06:33:42;;;;;;;13.23;5.60;;;10.70;99.90;;;;;;4973530;28;20525;-69
2022/10/04 06:36:26;;;;;;;13.02;5.75;;;10.70;99.90;;;;;;4972027;28;20043;-70
2022/10/04 06:39:22;;;;;;;12.57;5.25;;;10.70;99.90;;;;;;4967682;28;20129;-68
2022/10/04 06:42:24;;;;;;;10.18;5.72;;;10.70;99.90;;;;;;4976545;28;20059;-70
2022/10/04 06:44:53;;;;;;;14.45;5.90;;;10.70;99.90;;;;;;4977370;28;20047;-71
2022/10/04 06:47:50;;;;;;;13.20;6.53;;;10.70;99.90;;;;;;4972113;28;20045;-70
2022/10/04 06:50:32;;;;;;;14.05;5.28;;;10.70;99.90;;;;;;4973914;28;20125;-70
2022/10/04 06:53:25;;;;;;;12.20;4.93;;;10.70;99.90;;;;;;4970574;28;20426;-69
2022/10/04 06:56:22;;;;;;;11.65;5.53;;;10.80;99.90;;;;;;4977574;28;20039;-71
2022/10/04 06:59:14;;;;;;;13.15;5.85;;;10.90;99.90;;;;;;4948561;28;20039;-70
2022/10/04 07:02:02;;;;;;;13.63;5.45;;;10.90;99.90;;;;;;4972610;28;20112;-69
2022/10/04 07:04:59;;;;;;;12.63;5.32;;;11.10;99.90;;;;;;4972658;28;20046;-70
2022/10/04 07:07:35;;;;;;;11.10;5.75;;;11.10;99.90;;;;;;4971514;28;20046;-69
2022/10/04 07:10:22;;;;;;;13.80;5.20;;;11.20;99.90;;;;;;4973694;28;20045;-69
2022/10/04 07:13:07;;;;;;;12.45;5.43;;;11.20;99.90;;;;;;4975207;28;20526;-70
2022/10/04 07:15:51;;;;;;;12.55;5.75;;;11.20;99.90;;;;;;4974035;28;20062;-69
2022/10/04 07:18:47;;;;;;;12.75;4.88;;;11.30;99.90;;;;;;4970705;28;20042;-69
2022/10/04 07:21:15;;;;;;;9.75;4.70;;;11.50;99.90;;;;;;4972449;28;20479;-70
2022/10/04 07:23:50;;;;;;;11.75;4.72;;;11.60;99.90;;;;;;4977443;28;20042;-69
2022/10/04 07:26:40;;;;;;;10.85;4.70;;;11.70;99.90;;;;;;4974213;28;20463;-70
2022/10/04 07:29:21;;;;;;;11.23;4.13;;;11.90;99.90;;;;;;4973536;28;20042;-69
2022/10/04 07:32:20;;;;;;;9.18;4.78;;;12.10;99.90;;;;;;4972164;28;20034;-70
2022/10/04 07:34:48;;;;;;;10.80;3.92;;;12.30;99.90;;;;;;4973550;28;20038;-69
2022/10/04 07:37:15;;;;;;;9.60;4.32;;;12.40;99.90;;;;;;4976062;28;20023;-70
2022/10/04 07:39:58;;;;;;;10.23;3.83;;;12.60;99.90;;;;;;4977567;28;20038;-70
2022/10/04 07:42:26;;;;;;;9.77;4.13;;;12.80;99.90;;;;;;4977453;28;20084;-69
2022/10/04 07:45:04;;;;;;;10.45;4.57;;;12.90;99.90;;;;;;4977260;28;20058;-70
2022/10/04 07:47:31;;;;;;;15.38;4.68;;;13.00;99.90;;;;;;4980643;28;20068;-70
2022/10/04 07:49:57;;;;;;;9.43;4.55;;;13.00;99.90;;;;;;4976648;28;20038;-70
2022/10/04 07:52:25;;;;;;;9.98;3.85;;;13.00;99.90;;;;;;4979822;28;20258;-70
2022/10/04 07:55:17;;;;;;;9.43;3.58;;;13.00;99.90;;;;;;4980320;28;20045;-71
2022/10/04 07:58:00;;;;;;;17.63;4.68;;;13.00;99.90;;;;;;4977914;28;20042;-70
2022/10/04 08:00:38;;;;;;;13.65;5.20;;;13.10;99.90;;;;;;4975379;28;20034;-70
2022/10/04 08:03:13;;;;;;;14.10;4.22;;;13.10;99.90;;;;;;4978100;28;20035;-70
2022/10/04 08:05:48;;;;;;;14.02;4.22;;;13.10;99.90;;;;;;4978888;28;20034;-70
2022/10/04 08:08:36;;;;;;;19.60;4.55;;;13.00;99.90;;;;;;4977897;28;20074;-70
2022/10/04 08:11:36;;;;;;;14.35;4.40;;;13.10;99.90;;;;;;4972001;28;20122;-70
2022/10/04 08:14:19;;;;;;;13.43;3.88;;;13.20;99.90;;;;;;4972160;28;20126;-69
2022/10/04 08:16:53;;;;;;;11.25;3.75;;;13.30;99.90;;;;;;4980000;28;20403;-70
2022/10/04 08:19:50;;;;;;;11.15;4.43;;;13.50;99.90;;;;;;4975492;28;20081;-70
2022/10/04 08:22:28;;;;;;;10.32;3.60;;;13.50;99.90;;;;;;4975749;28;20411;-69
2022/10/04 08:25:00;;;;;;;12.13;3.72;;;13.70;99.90;;;;;;4969646;28;20043;-71
2022/10/04 08:27:35;;;;;;;8.63;3.63;;;13.90;99.90;;;;;;4975461;28;20062;-70
2022/10/04 08:30:16;;;;;;;9.73;3.45;;;13.90;99.90;;;;;;4978743;28;20050;-70
2022/10/04 08:33:00;;;;;;;11.68;3.30;;;14.00;99.90;;;;;;4974887;28;20046;-70
2022/10/04 08:35:47;;;;;;;11.45;3.40;;;14.10;99.90;;;;;;4970465;28;20495;-70
2022/10/04 08:38:31;;;;;;;10.13;3.10;;;14.10;99.90;;;;;;4976395;28;20041;-70
2022/10/04 08:41:23;;;;;;;7.63;3.10;;;14.10;99.90;;;;;;4975538;28;20062;-70
2022/10/04 08:44:09;;;;;;;11.68;3.13;;;14.20;99.90;;;;;;4977745;28;20038;-70
2022/10/04 08:47:07;;;;;;;8.38;3.20;;;14.20;99.90;;;;;;4975077;28;20129;-70
2022/10/04 08:50:12;;;;;;;10.82;3.10;;;14.30;99.90;;;;;;4971872;28;20038;-71
2022/10/04 08:52:59;;;;;;;8.35;4.13;;;14.40;99.90;;;;;;4979305;28;20053;-70
2022/10/04 08:55:45;;;;;;;12.18;3.53;;;14.40;99.90;;;;;;4973383;28;20491;-71
2022/10/04 08:58:29;;;;;;;6.40;3.08;;;14.50;99.90;;;;;;4981312;28;20064;-70
2022/10/04 09:01:10;;;;;;;10.07;3.47;;;14.50;99.90;;;;;;4975995;28;20038;-70
2022/10/04 09:03:48;;;;;;;;;;;14.60;99.90;;;;;;4972580;28;20380;-70
2022/10/04 09:06:41;;;;;;;8.73;3.42;;;14.70;99.90;;;;;;4977864;28;20376;-69
2022/10/04 09:09:47;;;;;;;7.72;2.75;;;14.70;99.90;;;;;;4975264;28;20042;-69
2022/10/04 09:12:39;;;;;;;11.77;3.65;;;14.80;99.90;;;;;;4979530;28;20045;-70
2022/10/04 09:15:21;;;;;;;8.68;3.38;;;14.80;99.90;;;;;;4975704;28;20035;-71
2022/10/04 09:18:01;;;;;;;9.25;3.67;;;14.90;99.90;;;;;;4975256;28;20045;-69
2022/10/04 09:20:48;;;;;;;9.25;2.80;;;15.00;99.90;;;;;;4974659;28;20038;-69
2022/10/04 09:23:38;;;;;;;8.15;3.70;;;15.00;99.90;;;;;;4979265;28;20027;-70
2022/10/04 09:26:12;;;;;;;7.32;3.45;;;15.10;99.90;;;;;;4976688;28;20377;-70
2022/10/04 09:29:06;;;;;;;10.43;3.28;;;15.20;99.90;;;;;;4974426;28;20039;-70
2022/10/04 09:31:50;;;;;;;8.02;2.80;;;15.20;99.90;;;;;;4975583;28;20045;-69
2022/10/04 09:34:26;;;;;;;11.55;3.90;;;15.20;99.90;;;;;;4976957;28;20038;-69
2022/10/04 09:36:57;;;;;;;10.93;3.65;;;15.30;99.90;;;;;;4975671;28;20023;-70
2022/10/04 09:39:31;;;;;;;;;;;15.30;99.90;;;;;;4974443;28;20096;-70
2022/10/04 09:42:45;;;;;;;8.13;3.13;;;15.50;99.90;;;;;;4972977;28;20393;-69
2022/10/04 09:45:36;;;;;;;6.93;2.95;;;15.50;99.90;;;;;;4968322;28;20035;-69
2022/10/04 09:48:24;;;;;;;7.88;3.35;;;15.70;99.90;;;;;;4974661;28;20069;-70
2022/10/04 09:51:23;;;;;;;11.23;3.05;;;15.70;99.90;;;;;;4973412;28;20591;-72
2022/10/04 09:54:06;;;;;;;7.97;2.90;;;15.80;99.90;;;;;;4977975;28;20081;-70
2022/10/04 09:56:47;;;;;;;6.68;2.90;;;15.80;99.90;;;;;;4972003;28;20068;-70
2022/10/04 09:59:22;;;;;;;;;;;15.80;99.90;;;;;;4974373;28;20046;-70
2022/10/04 10:01:56;;;;;;;7.45;2.72;;;15.80;99.90;;;;;;4978309;28;20800;-70
2022/10/04 10:05:01;;;;;;;6.78;2.65;;;15.80;99.90;;;;;;4980696;28;20042;-71
2022/10/04 10:08:04;;;;;;;10.65;2.63;;;15.80;99.90;;;;;;4977750;28;20388;-69
2022/10/04 10:13:51;;;;;;;11.45;3.53;;;15.90;99.90;;;;;;4972584;28;20585;-71
2022/10/04 10:16:39;;;;;;;15.73;3.38;;;16.00;99.90;;;;;;4972617;28;20046;-70
2022/10/04 10:19:26;;;;;;;10.52;2.75;;;16.00;99.90;;;;;;4975996;28;20027;-70
2022/10/04 10:22:13;;;;;;;6.03;2.42;;;16.00;99.90;;;;;;4973244;28;20056;-68
2022/10/04 10:24:45;;;;;;;7.82;2.28;;;16.00;99.90;;;;;;4970372;28;20037;-69
2022/10/04 10:27:30;;;;;;;8.68;3.00;;;16.00;99.90;;;;;;4975199;28;20117;-69
2022/10/04 10:30:11;;;;;;;6.40;3.03;;;16.10;99.90;;;;;;4971532;28;20073;-70
2022/10/04 10:32:52;;;;;;;6.53;2.35;;;16.20;99.90;;;;;;4974775;28;20877;-70
2022/10/04 10:35:27;;;;;;;8.52;2.90;;;16.20;99.90;;;;;;4970181;28;20053;-70
2022/10/04 10:38:24;;;;;;;5.60;2.80;;;16.20;99.90;;;;;;4976240;28;20049;-69
2022/10/04 10:41:09;;;;;;;11.80;3.50;;;16.20;99.90;;;;;;4973610;28;20487;-74
2022/10/04 10:43:37;;;;;;;10.18;2.58;;;16.10;99.90;;;;;;4972235;28;20038;-70
2022/10/04 10:46:30;;;;;;;7.93;2.70;;;16.20;99.90;;;;;;4976518;28;20459;-70
2022/10/04 10:49:16;;;;;;;6.07;2.60;;;16.30;99.90;;;;;;4972129;28;20043;-71
2022/10/04 10:52:06;;;;;;;7.03;2.72;;;16.30;99.90;;;;;;4975614;28;20037;-70
2022/10/04 10:55:06;;;;;;;6.18;2.70;;;16.40;99.90;;;;;;4971874;28;20499;-70
2022/10/04 10:57:34;;;;;;;6.63;2.67;;;16.40;99.90;;;;;;4970650;28;20027;-69
2022/10/04 11:00:18;;;;;;;8.95;3.05;;;16.30;99.90;;;;;;4976831;28;20130;-70
2022/10/04 11:03:24;;;;;;;8.23;3.00;;;16.40;99.90;;;;;;4971830;28;20494;-69
2022/10/04 11:06:12;;;;;;;9.07;2.88;;;16.40;99.90;;;;;;4975474;28;20506;-74
2022/10/04 11:08:41;;;;;;;5.40;2.33;;;16.40;99.90;;;;;;4974508;28;20038;-70
2022/10/04 11:11:29;;;;;;;7.40;2.45;;;16.40;99.90;;;;;;4972210;28;20122;-71
2022/10/04 11:14:29;;;;;;;6.20;2.63;;;16.50;99.90;;;;;;4977380;28;20457;-72
2022/10/04 11:17:08;;;;;;;6.90;2.60;;;16.50;99.90;;;;;;4976329;28;20039;-70
2022/10/04 11:19:49;;;;;;;6.15;2.22;;;16.50;99.90;;;;;;4976100;28;20054;-70
2022/10/04 11:22:43;;;;;;;7.03;2.53;;;16.50;99.90;;;;;;4970747;28;20426;-69
2022/10/04 11:25:34;;;;;;;9.60;2.83;;;16.60;99.90;;;;;;4973809;28;20043;-70
2022/10/04 11:28:19;;;;;;;8.60;2.28;;;16.60;99.90;;;;;;4978609;28;20038;-70
2022/10/04 11:31:11;;;;;;;6.30;2.58;;;16.70;99.90;;;;;;4974213;28;20129;-70
2022/10/04 11:34:10;;;;;;;8.48;2.40;;;16.80;99.90;;;;;;4973748;28;20041;-71
2022/10/04 11:36:54;;;;;;;6.10;2.08;;;16.80;99.90;;;;;;4971846;28;20080;-71
2022/10/04 11:39:43;;;;;;;7.75;2.22;;;16.70;99.90;;;;;;4970946;28;20121;-69
2022/10/04 11:42:16;;;;;;;6.63;1.98;;;16.80;99.90;;;;;;4974467;28;20080;-69
2022/10/04 11:45:01;;;;;;;4.57;2.30;;;16.80;99.90;;;;;;4973186;28;20034;-70
2022/10/04 11:47:38;;;;;;;17.98;2.55;;;16.90;99.90;;;;;;4971911;28;20057;-69
2022/10/04 11:50:21;;;;;;;5.53;2.58;;;17.10;99.90;;;;;;4969662;28;20070;-71
2022/10/04 11:53:02;;;;;;;5.68;2.05;;;17.20;99.90;;;;;;4972874;28;20043;-70
2022/10/04 11:55:57;;;;;;;7.20;2.50;;;17.20;99.90;;;;;;4975322;28;20043;-71
2022/10/04 11:58:56;;;;;;;12.35;2.72;;;17.20;99.90;;;;;;4969595;28;20134;-70
2022/10/04 12:01:37;;;;;;;8.18;2.40;;;17.20;99.90;;;;;;4968198;28;20046;-69
2022/10/04 12:04:28;;;;;;;6.28;2.58;;;17.30;99.90;;;;;;4970021;28;20046;-71
2022/10/04 12:07:37;;;;;;;8.75;2.35;;;17.40;99.90;;;;;;4973496;28;20039;-71
2022/10/04 12:10:15;;;;;;;9.07;2.60;;;17.60;99.90;;;;;;4971403;28;20494;-69
2022/10/04 12:12:46;;;;;;;7.95;2.10;;;17.60;99.90;;;;;;4973786;28;20040;-69
2022/10/04 12:15:37;;;;;;;3.20;1.77;;;17.60;99.90;;;;;;4969424;28;20491;-70
2022/10/04 12:18:13;;;;;;;6.03;2.05;;;17.60;99.90;;;;;;4972407;28;20058;-71
2022/10/04 12:21:15;;;;;;;12.25;2.15;;;17.60;99.90;;;;;;4975470;28;20046;-69
2022/10/04 12:24:07;;;;;;;17.20;3.35;;;17.60;99.90;;;;;;4975303;28;20750;-72
2022/10/04 12:26:36;;;;;;;5.70;2.85;;;17.60;99.90;;;;;;4960725;28;20034;-71
2022/10/04 12:29:35;;;;;;;11.82;3.45;;;17.40;99.90;;;;;;4973040;28;20043;-70
2022/10/04 12:32:23;;;;;;;6.07;2.20;;;17.30;99.90;;;;;;4973806;28;20038;-68
2022/10/04 12:35:14;;;;;;;10.20;2.72;;;17.20;99.90;;;;;;4974731;28;20690;-69
2022/10/04 12:37:58;;;;;;;10.10;2.22;;;17.10;99.90;;;;;;4977237;28;20045;-70
2022/10/04 12:40:45;;;;;;;9.05;2.75;;;17.00;99.90;;;;;;4978302;28;20039;-70
2022/10/04 12:43:44;;;;;;;5.75;2.20;;;17.00;99.90;;;;;;4975182;28;20046;-70
2022/10/04 12:46:38;;;;;;;7.85;2.80;;;17.00;99.90;;;;;;4972243;28;20104;-68
2022/10/04 12:49:29;;;;;;;6.65;2.40;;;17.00;99.90;;;;;;4975410;28;20049;-69
2022/10/04 12:52:09;;;;;;;7.85;2.67;;;17.10;99.90;;;;;;4977454;28;20043;-70
2022/10/04 12:54:43;;;;;;;5.45;2.13;;;17.00;99.90;;;;;;4976004;28;20121;-69
2022/10/04 12:57:39;;;;;;;11.40;2.75;;;17.00;99.90;;;;;;4976015;28;20101;-70
2022/10/04 13:00:21;;;;;;;5.07;2.50;;;17.00;99.90;;;;;;4973582;28;20030;-70
2022/10/04 13:02:59;;;;;;;5.55;2.30;;;17.00;99.90;;;;;;4974233;28;20034;-68
2022/10/04 13:05:53;;;;;;;12.30;2.65;;;17.10;99.90;;;;;;4978188;28;20035;-68
2022/10/04 13:08:41;;;;;;;4.72;2.22;;;17.10;99.90;;;;;;4977974;28;20050;-70
2022/10/04 13:11:35;;;;;;;8.07;2.00;;;17.20;99.90;;;;;;4977859;28;20042;-69
2022/10/04 13:14:54;;;;;;;7.10;2.10;;;17.10;99.90;;;;;;4976227;28;20045;-68
2022/10/04 13:17:37;;;;;;;5.65;2.13;;;17.10;99.90;;;;;;4975236;28;20045;-69
2022/10/04 13:20:42;;;;;;;8.80;2.25;;;17.20;99.90;;;;;;4975036;28;20034;-70
2022/10/04 13:23:13;;;;;;;6.45;2.50;;;17.10;99.90;;;;;;4966687;28;20042;-70
2022/10/04 13:26:14;;;;;;;6.63;2.50;;;17.10;99.90;;;;;;4978527;28;20126;-69
2022/10/04 13:29:03;;;;;;;8.65;2.53;;;17.20;99.90;;;;;;4971492;28;20479;-69
2022/10/04 13:31:44;;;;;;;5.87;2.40;;;17.20;99.90;;;;;;4975427;28;20129;-70
2022/10/04 13:34:35;;;;;;;8.23;2.70;;;17.20;99.90;;;;;;4972810;28;20097;-70
2022/10/04 13:37:03;;;;;;;6.55;2.90;;;17.10;99.90;;;;;;4975157;28;20050;-69
2022/10/04 13:39:45;;;;;;;10.88;3.15;;;17.20;99.90;;;;;;4977129;28;20037;-69
2022/10/04 13:42:14;;;;;;;11.43;3.55;;;17.20;99.90;;;;;;4975610;28;20034;-70
2022/10/04 13:45:09;;;;;;;5.25;2.60;;;17.20;99.90;;;;;;4974984;28;20030;-70
2022/10/04 13:48:04;;;;;;;7.95;1.95;;;17.20;99.90;;;;;;4974960;28;20052;-71
2022/10/04 13:50:48;;;;;;;6.75;2.10;;;17.10;99.90;;;;;;4975172;28;20042;-69
2022/10/04 13:56:44;;;;;;;6.90;2.33;;;17.20;99.90;;;;;;4968105;28;20089;-69
2022/10/04 13:59:23;;;;;;;5.45;2.20;;;17.20;99.90;;;;;;4972226;28;20508;-70
2022/10/04 14:02:21;;;;;;;9.13;3.15;;;17.20;99.90;;;;;;4974123;28;20031;-70